createdAt,value
2022-09-18T00:01:33.164Z,95151.60
2022-09-18T00:04:06.190Z,95160.10
2022-09-18T00:06:34.873Z,95171.80
2022-09-18T00:09:04.967Z,95175.52
2022-09-18T00:11:36.435Z,95170.95
2022-09-18T00:14:09.130Z,95176.84
2022-09-18T00:16:36.913Z,95187.21
2022-09-18T00:19:05.697Z,95185.49
2022-09-18T00:21:35.357Z,95173.30
2022-09-18T00:24:04.145Z,95190.98
2022-09-18T00:26:32.886Z,95207.20
2022-09-18T00:29:00.617Z,95206.30
2022-09-18T00:31:32.133Z,95218.70
2022-09-18T00:34:02.224Z,95231.14
2022-09-18T00:36:30.017Z,95245.16
2022-09-18T00:39:02.388Z,95243.05
2022-09-18T00:41:32.896Z,95249.47
2022-09-18T00:44:21.762Z,95271.81
2022-09-18T00:46:54.344Z,95287.89
2022-09-18T00:49:26.837Z,95303.17
2022-09-18T00:52:03.726Z,95310.15
2022-09-18T00:54:39.706Z,95283.88
2022-09-18T00:57:14.755Z,95265.97
2022-09-18T00:59:44.540Z,95272.17
2022-09-18T01:02:12.264Z,95283.66
2022-09-18T01:04:47.182Z,95284.29
2022-09-18T01:07:28.675Z,95284.60
2022-09-18T01:10:42.517Z,95268.27
2022-09-18T01:13:09.352Z,95264.20
2022-09-18T01:15:50.428Z,95291.53
2022-09-18T01:18:49.661Z,95299.08
2022-09-18T01:21:47.913Z,95296.70
2022-09-18T01:24:37.048Z,95300.02
2022-09-18T01:27:16.129Z,95303.25
2022-09-18T01:30:01.073Z,95304.47
2022-09-18T01:32:58.133Z,95308.00
2022-09-18T01:35:41.960Z,95292.25
2022-09-18T01:38:18.356Z,95298.92
2022-09-18T01:40:54.779Z,95283.77
2022-09-18T01:43:24.885Z,95279.15
2022-09-18T01:45:54.195Z,95291.94
2022-09-18T01:48:32.255Z,95292.52
2022-09-18T01:51:14.462Z,95298.38
2022-09-18T01:53:46.866Z,95305.10
2022-09-18T01:56:52.038Z,95308.89
2022-09-18T01:59:24.647Z,95327.36
2022-09-18T02:02:23.781Z,95340.99
2022-09-18T02:05:07.168Z,95349.48
2022-09-18T02:07:48.457Z,95349.89
2022-09-18T02:10:17.763Z,95356.21
2022-09-18T02:12:48.095Z,95363.80
2022-09-18T02:15:15.992Z,95363.09
2022-09-18T02:18:00.048Z,95372.30
2022-09-18T02:20:39.625Z,95367.82
2022-09-18T02:23:08.015Z,95362.47
2022-09-18T02:25:58.488Z,95373.96
2022-09-18T02:28:27.100Z,95376.61
2022-09-18T02:30:54.796Z,95376.66
2022-09-18T02:33:32.112Z,95391.69
2022-09-18T02:36:33.656Z,95381.55
2022-09-18T02:39:08.485Z,95397.72
2022-09-18T02:41:44.392Z,95393.03
2022-09-18T02:44:37.811Z,95402.70
2022-09-18T02:47:17.516Z,95416.00
2022-09-18T02:49:50.187Z,95402.05
2022-09-18T02:52:26.871Z,95417.11
2022-09-18T02:55:04.946Z,95417.38
2022-09-18T02:57:51.829Z,95425.14
2022-09-18T03:00:31.467Z,95434.02
2022-09-18T03:02:59.552Z,95442.85
2022-09-18T03:05:59.090Z,95460.06
2022-09-18T03:08:28.403Z,95435.09
2022-09-18T03:10:55.316Z,95456.47
2022-09-18T03:13:22.250Z,95461.90
2022-09-18T03:15:56.147Z,95460.17
2022-09-18T03:18:26.269Z,95464.64
2022-09-18T03:20:55.998Z,95475.45
2022-09-18T03:23:24.133Z,95468.30
2022-09-18T03:25:57.531Z,95485.28
2022-09-18T03:28:25.032Z,95482.16
2022-09-18T03:31:01.901Z,95498.06
2022-09-18T03:33:30.837Z,95497.27
2022-09-18T03:36:02.254Z,95504.76
2022-09-18T03:38:29.436Z,95495.95
2022-09-18T03:40:57.673Z,95504.34
2022-09-18T03:43:25.905Z,95513.79
2022-09-18T03:45:53.693Z,95503.71
2022-09-18T03:48:29.173Z,95509.12
2022-09-18T03:50:56.222Z,95511.02
2022-09-18T03:53:27.971Z,95503.48
2022-09-18T03:56:15.202Z,95517.61
2022-09-18T03:59:11.125Z,95511.52
2022-09-18T04:01:58.664Z,95526.20
2022-09-18T04:04:35.009Z,95521.20
2022-09-18T04:07:20.392Z,95524.94
2022-09-18T04:10:30.946Z,95537.64
2022-09-18T04:12:58.815Z,95538.16
2022-09-18T04:15:35.171Z,95537.75
2022-09-18T04:18:06.217Z,95555.45
2022-09-18T04:20:33.167Z,95551.61
2022-09-18T04:23:00.380Z,95553.67
2022-09-18T04:25:27.424Z,95555.53
2022-09-18T04:27:56.103Z,95568.25
2022-09-18T04:30:41.046Z,95571.19
2022-09-18T04:33:08.588Z,95574.14
2022-09-18T04:35:35.978Z,95577.55
2022-09-18T04:38:03.120Z,95580.22
2022-09-18T04:40:30.798Z,95576.71
2022-09-18T04:43:00.363Z,95583.94
2022-09-18T04:45:40.368Z,95587.52
2022-09-18T04:48:08.474Z,95596.60
2022-09-18T04:50:36.749Z,95603.27
2022-09-18T04:53:09.231Z,95611.81
2022-09-18T04:55:36.589Z,95610.08
2022-09-18T04:58:03.482Z,95614.89
2022-09-18T05:00:31.816Z,95619.69
2022-09-18T05:03:01.462Z,95626.10
2022-09-18T05:05:30.873Z,95637.59
2022-09-18T05:08:01.992Z,95635.66
2022-09-18T05:10:30.005Z,95639.61
2022-09-18T05:12:57.395Z,95654.67
2022-09-18T05:15:53.646Z,95642.71
2022-09-18T05:18:20.918Z,95664.88
2022-09-18T05:20:48.893Z,95662.72
2022-09-18T05:23:26.871Z,95676.24
2022-09-18T05:26:08.465Z,95674.48
2022-09-18T05:28:38.312Z,95681.58
2022-09-18T05:31:05.309Z,95685.80
2022-09-18T05:33:41.294Z,95685.55
2022-09-18T05:36:11.153Z,95699.35
2022-09-18T05:38:38.866Z,95699.10
2022-09-18T05:41:13.737Z,95714.77
2022-09-18T05:43:45.698Z,95707.16
2022-09-18T05:46:14.236Z,95719.68
2022-09-18T05:48:52.960Z,95717.05
2022-09-18T05:51:25.939Z,95722.61
2022-09-18T05:53:53.126Z,95726.48
2022-09-18T05:56:26.795Z,95726.09
2022-09-18T05:59:00.022Z,95731.19
2022-09-18T06:04:14.350Z,95742.67
2022-09-18T06:06:50.355Z,95741.76
2022-09-18T06:09:17.316Z,95745.95
2022-09-18T06:11:44.209Z,95751.05
2022-09-18T06:14:11.040Z,95756.95
2022-09-18T06:16:42.102Z,95754.03
2022-09-18T06:19:10.469Z,95752.08
2022-09-18T06:21:37.940Z,95767.74
2022-09-18T06:24:10.345Z,95768.90
2022-09-18T06:26:58.046Z,95765.48
2022-09-18T06:29:39.734Z,95768.83
2022-09-18T06:32:26.015Z,95786.37
2022-09-18T06:34:56.784Z,95799.59
2022-09-18T06:37:24.677Z,95795.58
2022-09-18T06:40:12.348Z,95802.10
2022-09-18T06:43:09.212Z,95804.39
2022-09-18T06:45:57.976Z,95811.77
2022-09-18T06:48:32.845Z,95817.05
2022-09-18T06:51:11.853Z,95814.02
2022-09-18T06:54:06.803Z,95818.49
2022-09-18T06:56:35.423Z,95820.04
2022-09-18T06:59:02.889Z,95814.08
2022-09-18T07:01:31.120Z,95826.38
2022-09-18T07:04:18.458Z,95824.20
2022-09-18T07:06:46.651Z,95824.21
2022-09-18T07:09:15.553Z,95827.52
2022-09-18T07:12:09.410Z,95829.23
2022-09-18T07:14:56.228Z,95823.13
2022-09-18T07:17:26.572Z,95825.94
2022-09-18T07:19:56.315Z,95833.37
2022-09-18T07:22:31.969Z,95819.43
2022-09-18T07:25:01.506Z,95826.27
2022-09-18T07:27:29.587Z,95832.27
2022-09-18T07:29:58.750Z,95825.43
2022-09-18T07:32:27.465Z,95832.66
2022-09-18T07:34:58.002Z,95831.08
2022-09-18T07:37:29.791Z,95831.10
2022-09-18T07:43:10.548Z,95842.95
2022-09-18T07:45:44.827Z,95840.89
2022-09-18T07:48:13.446Z,95849.79
2022-09-18T07:50:46.045Z,95840.04
2022-09-18T07:53:14.065Z,95845.30
2022-09-18T07:55:47.177Z,95847.05
2022-09-18T07:58:14.192Z,95849.27
2022-09-18T08:00:56.082Z,95855.27
2022-09-18T08:03:41.608Z,95850.58
2022-09-18T08:06:12.720Z,95853.14
2022-09-18T08:09:19.251Z,95856.01
2022-09-18T08:12:03.100Z,95865.94
2022-09-18T08:14:53.360Z,95868.05
2022-09-18T08:17:46.094Z,95862.88
2022-09-18T08:20:41.255Z,95866.59
2022-09-18T08:23:18.986Z,95867.80
2022-09-18T08:25:47.107Z,95871.48
2022-09-18T08:28:14.578Z,95867.86
2022-09-18T08:30:51.499Z,95870.15
2022-09-18T08:33:18.368Z,95874.80
2022-09-18T08:35:45.841Z,95875.52
2022-09-18T08:38:26.355Z,95871.70
2022-09-18T08:41:19.261Z,95881.13
2022-09-18T08:44:05.219Z,95874.02
2022-09-18T08:46:43.336Z,95882.73
2022-09-18T08:49:42.794Z,95874.94
2022-09-18T08:52:24.164Z,95875.95
2022-09-18T08:55:09.801Z,95880.89
2022-09-18T08:58:07.452Z,95888.05
2022-09-18T09:00:52.271Z,95883.31
2022-09-18T09:03:28.549Z,95888.57
2022-09-18T09:06:21.564Z,95883.83
2022-09-18T09:09:22.028Z,95888.11
2022-09-18T09:12:53.855Z,95891.23
2022-09-18T09:15:54.148Z,95889.52
2022-09-18T09:18:59.090Z,95898.91
2022-09-18T09:21:45.200Z,95909.91
2022-09-18T09:24:32.710Z,95909.60
2022-09-18T09:27:20.009Z,95916.54
2022-09-18T09:30:22.535Z,95930.73
2022-09-18T09:33:28.679Z,95928.23
2022-09-18T09:36:24.516Z,95920.35
2022-09-18T09:39:00.869Z,95939.96
2022-09-18T09:42:04.848Z,95949.48
2022-09-18T09:44:51.837Z,95934.28
2022-09-18T09:47:30.006Z,95946.08
2022-09-18T09:50:25.734Z,95954.47
2022-09-18T09:53:04.662Z,95951.23
2022-09-18T09:55:40.172Z,95961.31
2022-09-18T09:58:48.948Z,95967.63
2022-09-18T10:01:30.084Z,95992.36
2022-09-18T10:04:28.884Z,95988.08
2022-09-18T10:07:29.132Z,96001.21
2022-09-18T10:10:44.741Z,95993.92
2022-09-18T10:13:21.860Z,95992.48
2022-09-18T10:15:55.821Z,96001.05
2022-09-18T10:18:29.899Z,96016.76
2022-09-18T10:21:18.408Z,96020.79
2022-09-18T10:23:58.247Z,96017.72
2022-09-18T10:26:43.382Z,96026.36
2022-09-18T10:29:10.875Z,96038.11
2022-09-18T10:31:57.209Z,96039.36
2022-09-18T10:34:48.817Z,96041.41
2022-09-18T10:37:32.586Z,96039.81
2022-09-18T10:40:33.697Z,96039.31
2022-09-18T10:43:04.691Z,96046.20
2022-09-18T10:48:43.855Z,96047.75
2022-09-18T10:51:19.485Z,96066.09
2022-09-18T10:54:15.122Z,96066.65
2022-09-18T10:57:06.435Z,96087.05
2022-09-18T10:59:35.179Z,96093.53
2022-09-18T11:02:05.938Z,96078.19
2022-09-18T11:04:34.090Z,96084.08
2022-09-18T11:07:06.884Z,96080.90
2022-09-18T11:09:44.473Z,96077.90
2022-09-18T11:12:30.469Z,96074.02
2022-09-18T11:15:14.096Z,96073.48
2022-09-18T11:17:56.001Z,96077.41
2022-09-18T11:20:29.786Z,96068.73
2022-09-18T11:23:31.143Z,96054.81
2022-09-18T11:26:12.044Z,96062.73
2022-09-18T11:28:59.423Z,96058.73
2022-09-18T11:31:43.304Z,96059.71
2022-09-18T11:34:24.432Z,96062.02
2022-09-18T11:36:57.174Z,96058.63
2022-09-18T11:39:33.562Z,96057.27
2022-09-18T11:42:07.089Z,96059.09
2022-09-18T11:44:35.459Z,96073.77
2022-09-18T11:47:21.729Z,96075.02
2022-09-18T11:50:22.076Z,96073.84
2022-09-18T11:52:54.043Z,96074.60
2022-09-18T11:55:33.342Z,96059.94
2022-09-18T11:58:20.909Z,96059.13
2022-09-18T12:01:25.268Z,96078.41
2022-09-18T12:04:18.864Z,96071.81
2022-09-18T12:07:38.492Z,96058.68
2022-09-18T12:10:34.566Z,96069.90
2022-09-18T12:13:19.893Z,96081.23
2022-09-18T12:15:57.245Z,96074.29
2022-09-18T12:18:30.903Z,96089.73
2022-09-18T12:21:07.484Z,96075.93
2022-09-18T12:23:34.662Z,96081.87
2022-09-18T12:26:15.673Z,96088.27
2022-09-18T12:29:07.788Z,96094.30
2022-09-18T12:35:05.348Z,96085.77
2022-09-18T12:38:11.407Z,96089.66
2022-09-18T12:41:06.800Z,96085.95
2022-09-18T12:43:42.208Z,96088.73
2022-09-18T12:46:47.751Z,96098.77
2022-09-18T12:49:24.126Z,96098.90
2022-09-18T12:52:09.106Z,96104.86
2022-09-18T12:54:51.611Z,96102.91
2022-09-18T12:57:48.976Z,96103.55
2022-09-18T13:00:17.952Z,96117.30
2022-09-18T13:03:02.242Z,96122.88
2022-09-18T13:05:40.763Z,96125.62
2022-09-18T13:08:43.056Z,96121.43
2022-09-18T13:11:46.350Z,96120.50
2022-09-18T13:14:26.424Z,96122.91
2022-09-18T13:17:04.938Z,96122.54
2022-09-18T13:19:37.963Z,96132.30
2022-09-18T13:22:14.035Z,96132.52
2022-09-18T13:24:54.702Z,96148.14
2022-09-18T13:27:24.350Z,96140.74
2022-09-18T13:29:58.678Z,96157.77
2022-09-18T13:32:36.571Z,96157.61
2022-09-18T13:35:13.956Z,96156.61
2022-09-18T13:37:42.710Z,96169.01
2022-09-18T13:40:36.620Z,96166.63
2022-09-18T13:43:29.017Z,96170.23
2022-09-18T13:46:07.402Z,96170.52
2022-09-18T13:48:48.244Z,96183.98
2022-09-18T13:51:36.841Z,96182.63
2022-09-18T13:54:13.306Z,96189.45
2022-09-18T13:57:03.363Z,96186.25
2022-09-18T13:59:46.660Z,96185.61
2022-09-18T14:02:43.776Z,96186.45
2022-09-18T14:05:33.624Z,96185.46
2022-09-18T14:08:24.969Z,96185.45
2022-09-18T14:11:14.540Z,96186.14
2022-09-18T14:13:43.315Z,96188.39
2022-09-18T14:16:19.549Z,96192.56
2022-09-18T14:18:49.682Z,96201.60
2022-09-18T14:21:16.613Z,96202.17
2022-09-18T14:23:45.545Z,96199.34
2022-09-18T14:26:28.495Z,96209.33
2022-09-18T14:29:21.339Z,96212.92
2022-09-18T14:32:00.549Z,96207.48
2022-09-18T14:34:42.365Z,96210.17
2022-09-18T14:40:22.094Z,96206.52
2022-09-18T14:42:50.697Z,96207.13
2022-09-18T14:45:24.672Z,96205.66
2022-09-18T14:47:52.531Z,96211.46
2022-09-18T14:50:33.254Z,96217.77
2022-09-18T14:53:20.918Z,96211.73
2022-09-18T14:55:56.821Z,96222.46
2022-09-18T14:58:28.854Z,96231.63
2022-09-18T15:00:56.584Z,96226.64
2022-09-18T15:03:29.285Z,96231.77
2022-09-18T15:06:06.792Z,96230.13
2022-09-18T15:08:35.705Z,96228.08
2022-09-18T15:11:03.414Z,96233.20
2022-09-18T15:13:33.927Z,96232.95
2022-09-18T15:16:06.118Z,96230.41
2022-09-18T15:18:42.547Z,96238.81
2022-09-18T15:21:33.467Z,96236.80
2022-09-18T15:24:03.004Z,96238.41
2022-09-18T15:26:43.935Z,96238.63
2022-09-18T15:29:22.614Z,96243.42
2022-09-18T15:31:54.821Z,96241.50
2022-09-18T15:34:30.144Z,96247.76
2022-09-18T15:37:22.082Z,96250.45
2022-09-18T15:40:16.247Z,96254.93
2022-09-18T15:43:02.936Z,96244.54
2022-09-18T15:45:37.337Z,96247.05
2022-09-18T15:48:36.573Z,96246.88
2022-09-18T15:51:11.509Z,96250.91
2022-09-18T15:53:45.189Z,96247.43
2022-09-18T15:56:20.944Z,96249.39
2022-09-18T15:58:54.886Z,96253.38
2022-09-18T16:01:45.372Z,96260.94
2022-09-18T16:04:33.332Z,96266.56
2022-09-18T16:07:09.398Z,96267.27
2022-09-18T16:09:47.478Z,96260.49
2022-09-18T16:12:29.622Z,96257.35
2022-09-18T16:15:18.714Z,96257.42
2022-09-18T16:17:45.923Z,96256.59
2022-09-18T16:20:45.065Z,96257.92
2022-09-18T16:23:19.428Z,96258.95
2022-09-18T16:26:14.907Z,96255.74
2022-09-18T16:28:58.374Z,96255.06
2022-09-18T16:31:30.910Z,96259.42
2022-09-18T16:34:01.462Z,96260.83
2022-09-18T16:36:31.462Z,96262.63
2022-09-18T16:39:11.283Z,96267.04
2022-09-18T16:41:40.305Z,96268.73
2022-09-18T16:44:13.388Z,96258.30
2022-09-18T16:46:42.393Z,96271.77
2022-09-18T16:49:15.079Z,96274.29
2022-09-18T16:51:44.218Z,96273.21
2022-09-18T16:54:12.074Z,96282.29
2022-09-18T16:56:51.109Z,96283.44
2022-09-18T16:59:27.872Z,96288.16
2022-09-18T17:02:04.857Z,96294.39
2022-09-18T17:04:36.732Z,96304.09
2022-09-18T17:07:18.598Z,96315.92
2022-09-18T17:09:45.836Z,96332.14
2022-09-18T17:12:22.950Z,96345.98
2022-09-18T17:14:51.469Z,96342.70
2022-09-18T17:17:19.053Z,96351.17
2022-09-18T17:19:46.869Z,96343.85
2022-09-18T17:22:22.484Z,96334.63
2022-09-18T17:24:52.213Z,96333.83
2022-09-18T17:27:20.816Z,96346.16
2022-09-18T17:29:48.056Z,96343.84
2022-09-18T17:32:14.894Z,96348.92
2022-09-18T17:34:43.197Z,96348.36
2022-09-18T17:37:11.780Z,96348.58
2022-09-18T17:39:39.163Z,96358.07
2022-09-18T17:42:09.342Z,96351.42
2022-09-18T17:44:45.359Z,96357.15
2022-09-18T17:47:13.022Z,96362.65
2022-09-18T17:49:41.695Z,96357.77
2022-09-18T17:52:14.257Z,96359.13
2022-09-18T17:54:41.311Z,96356.59
2022-09-18T17:57:21.841Z,96352.02
2022-09-18T17:59:51.184Z,96368.02
2022-09-18T18:02:21.920Z,96359.91
2022-09-18T18:04:57.570Z,96360.59
2022-09-18T18:07:25.725Z,96363.81
2022-09-18T18:09:54.215Z,96365.27
2022-09-18T18:12:22.424Z,96373.46
2022-09-18T18:14:51.257Z,96376.54
2022-09-18T18:17:19.712Z,96373.70
2022-09-18T18:19:50.091Z,96375.98
2022-09-18T18:22:17.472Z,96379.89
2022-09-18T18:24:44.633Z,96380.90
2022-09-18T18:27:11.566Z,96386.09
2022-09-18T18:29:40.442Z,96379.05
2022-09-18T18:32:11.913Z,96383.40
2022-09-18T18:34:39.082Z,96381.70
2022-09-18T18:37:06.369Z,96380.36
2022-09-18T18:39:33.348Z,96378.21
2022-09-18T18:42:00.183Z,96389.18
2022-09-18T18:44:27.428Z,96393.63
2022-09-18T18:46:55.553Z,96401.03
2022-09-18T18:49:23.704Z,96406.14
2022-09-18T18:51:55.290Z,96398.58
2022-09-18T18:54:22.407Z,96405.31
2022-09-18T18:56:54.475Z,96405.31
2022-09-18T18:59:25.005Z,96398.73
2022-09-18T19:02:14.873Z,96398.19
2022-09-18T19:04:43.293Z,96393.50
2022-09-18T19:07:11.549Z,96401.86
2022-09-18T19:09:39.629Z,96395.48
2022-09-18T19:12:07.460Z,96393.02
2022-09-18T19:14:37.806Z,96392.70
2022-09-18T19:17:05.262Z,96390.10
2022-09-18T19:19:32.676Z,96392.36
2022-09-18T19:21:59.990Z,96392.81
2022-09-18T19:24:29.425Z,96388.14
2022-09-18T19:26:59.383Z,96387.88
2022-09-18T19:29:28.840Z,96392.21
2022-09-18T19:31:58.974Z,96390.72
2022-09-18T19:34:41.838Z,96387.05
2022-09-18T19:37:14.886Z,96383.23
2022-09-18T19:39:49.099Z,96385.08
2022-09-18T19:42:19.872Z,96388.05
2022-09-18T19:45:02.928Z,96382.91
2022-09-18T19:47:45.311Z,96385.52
2022-09-18T19:50:37.698Z,96385.59
2022-09-18T19:53:07.889Z,96387.73
2022-09-18T19:55:36.854Z,96390.76
2022-09-18T19:58:05.060Z,96388.30
2022-09-18T20:00:33.250Z,96385.41
2022-09-18T20:03:05.431Z,96393.09
2022-09-18T20:05:56.764Z,96395.67
2022-09-18T20:08:32.466Z,96403.18
2022-09-18T20:11:04.669Z,96403.99
2022-09-18T20:13:34.283Z,96403.21
2022-09-18T20:16:17.619Z,96405.59
2022-09-18T20:18:55.989Z,96404.77
2022-09-18T20:21:25.923Z,96405.37
2022-09-18T20:26:45.523Z,96411.60
2022-09-18T20:29:16.081Z,96412.29
2022-09-18T20:31:51.049Z,96416.52
2022-09-18T20:34:28.891Z,96420.37
2022-09-18T20:37:14.218Z,96421.94
2022-09-18T20:39:41.547Z,96421.10
2022-09-18T20:42:15.884Z,96417.84
2022-09-18T20:45:13.647Z,96417.35
2022-09-18T20:47:43.220Z,96415.25
2022-09-18T20:50:34.337Z,96415.48
2022-09-18T20:53:10.281Z,96428.12
2022-09-18T20:55:40.258Z,96421.02
2022-09-18T20:58:08.792Z,96417.48
2022-09-18T21:00:57.160Z,96423.13
2022-09-18T21:03:30.530Z,96416.68
2022-09-18T21:06:37.372Z,96416.23
2022-09-18T21:09:18.031Z,96414.73
2022-09-18T21:11:51.427Z,96422.11
2022-09-18T21:14:25.866Z,96426.72
2022-09-18T21:16:58.221Z,96420.67
2022-09-18T21:19:29.644Z,96417.09
2022-09-18T21:22:05.558Z,96425.97
2022-09-18T21:24:35.979Z,96419.64
2022-09-18T21:27:10.431Z,96423.09
2022-09-18T21:29:41.854Z,96421.09
2022-09-18T21:32:10.430Z,96419.15
2022-09-18T21:35:03.226Z,96419.04
2022-09-18T21:37:30.241Z,96420.09
2022-09-18T21:39:57.687Z,96422.70
2022-09-18T21:42:26.468Z,96415.11
2022-09-18T21:44:55.739Z,96419.44
2022-09-18T21:47:37.774Z,96423.38
2022-09-18T21:50:05.479Z,96432.30
2022-09-18T21:52:35.044Z,96433.92
2022-09-18T21:55:17.685Z,96436.42
2022-09-18T22:01:18.395Z,96436.59
2022-09-18T22:03:56.108Z,96437.48
2022-09-18T22:06:40.763Z,96439.88
2022-09-18T22:09:12.089Z,96441.16
2022-09-18T22:11:40.178Z,96439.32
2022-09-18T22:14:39.018Z,96442.09
2022-09-18T22:17:11.368Z,96442.71
2022-09-18T22:19:48.108Z,96442.67
2022-09-18T22:22:16.851Z,96445.86
2022-09-18T22:24:56.742Z,96443.79
2022-09-18T22:30:24.896Z,96445.13
2022-09-18T22:33:04.253Z,96445.10
2022-09-18T22:35:37.706Z,96440.53
2022-09-18T22:38:11.350Z,96440.31
2022-09-18T22:40:41.729Z,96443.50
2022-09-18T22:43:17.026Z,96441.50
2022-09-18T22:45:45.099Z,96443.79
2022-09-18T22:48:14.230Z,96440.11
2022-09-18T22:51:19.689Z,96440.17
2022-09-18T22:54:10.411Z,96438.02
2022-09-18T22:56:46.258Z,96444.54
2022-09-18T22:59:17.501Z,96448.38
2022-09-18T23:02:01.536Z,96445.55
2022-09-18T23:04:46.686Z,96441.13
2022-09-18T23:07:13.918Z,96439.95
2022-09-18T23:09:44.132Z,96442.38
2022-09-18T23:12:13.951Z,96441.54
2022-09-18T23:14:42.922Z,96440.49
2022-09-18T23:17:10.296Z,96441.95
2022-09-18T23:19:37.428Z,96440.80
2022-09-18T23:22:04.865Z,96439.18
2022-09-18T23:24:32.518Z,96435.48
2022-09-18T23:27:01.521Z,96437.24
2022-09-18T23:29:33.890Z,96431.82
2022-09-18T23:32:08.550Z,96423.34
2022-09-18T23:34:36.011Z,96424.89
2022-09-18T23:37:05.259Z,96422.38
2022-09-18T23:39:37.545Z,96422.38
2022-09-18T23:42:05.603Z,96418.31
2022-09-18T23:44:53.078Z,96418.84
2022-09-18T23:50:16.432Z,96423.48
2022-09-18T23:52:51.194Z,96425.83
2022-09-18T23:55:28.379Z,96427.33
2022-09-18T23:58:03.285Z,96424.05
